sensor_id;sensor_type;location;lat;lon;timestamp;pressure;altitude;pressure_sealevel;temperature;humidity
34297;BME280;20564;42.902;25.336;2023-03-13T00:01:29;97573.91;;;3.98;65.28
34297;BME280;20564;42.902;25.336;2023-03-13T00:03:58;97570.56;;;3.96;66.54
34297;BME280;20564;42.902;25.336;2023-03-13T00:06:30;97578.44;;;3.95;64.84
34297;BME280;20564;42.902;25.336;2023-03-13T00:09:00;97562.81;;;3.95;66.05
34297;BME280;20564;42.902;25.336;2023-03-13T00:11:35;97567.97;;;3.96;65.25
34297;BME280;20564;42.902;25.336;2023-03-13T00:14:04;97573.91;;;3.98;65.67
34297;BME280;20564;42.902;25.336;2023-03-13T00:16:49;97572.41;;;3.94;65.86
34297;BME280;20564;42.902;25.336;2023-03-13T00:19:53;97574.63;;;3.86;66.01
34297;BME280;20564;42.902;25.336;2023-03-13T00:22:44;97575.34;;;3.74;67.76
34297;BME280;20564;42.902;25.336;2023-03-13T00:26:08;97576.13;;;3.60;67.41
34297;BME280;20564;42.902;25.336;2023-03-13T00:29:03;97579.44;;;3.48;69.39
34297;BME280;20564;42.902;25.336;2023-03-13T00:31:52;97575.50;;;3.41;70.18
34297;BME280;20564;42.902;25.336;2023-03-13T00:35:15;97573.41;;;3.31;70.97
34297;BME280;20564;42.902;25.336;2023-03-13T00:38:21;97576.78;;;3.33;70.32
34297;BME280;20564;42.902;25.336;2023-03-13T00:41:14;97581.53;;;3.25;70.55
34297;BME280;20564;42.902;25.336;2023-03-13T00:47:25;97577.56;;;3.04;72.17
34297;BME280;20564;42.902;25.336;2023-03-13T00:50:18;97574.59;;;2.94;73.33
34297;BME280;20564;42.902;25.336;2023-03-13T00:56:35;97566.72;;;2.80;73.77
34297;BME280;20564;42.902;25.336;2023-03-13T00:59:08;97577.28;;;2.77;74.02
34297;BME280;20564;42.902;25.336;2023-03-13T01:01:48;97572.44;;;2.71;74.13
34297;BME280;20564;42.902;25.336;2023-03-13T01:04:27;97562.91;;;2.54;75.13
34297;BME280;20564;42.902;25.336;2023-03-13T01:07:03;97566.84;;;2.45;75.27
34297;BME280;20564;42.902;25.336;2023-03-13T01:09:37;97575.69;;;2.41;75.81
34297;BME280;20564;42.902;25.336;2023-03-13T01:12:43;97556.22;;;2.16;75.87
34297;BME280;20564;42.902;25.336;2023-03-13T01:15:25;97543.25;;;1.99;76.04
34297;BME280;20564;42.902;25.336;2023-03-13T01:18:23;97554.00;;;2.09;75.80
34297;BME280;20564;42.902;25.336;2023-03-13T01:21:35;97582.19;;;2.16;75.11
34297;BME280;20564;42.902;25.336;2023-03-13T01:24:50;97580.59;;;1.97;76.51
34297;BME280;20564;42.902;25.336;2023-03-13T01:27:47;97587.63;;;1.77;77.30
34297;BME280;20564;42.902;25.336;2023-03-13T01:30:25;97589.69;;;1.71;77.72
34297;BME280;20564;42.902;25.336;2023-03-13T01:33:26;97589.81;;;1.67;78.36
34297;BME280;20564;42.902;25.336;2023-03-13T01:36:37;97583.09;;;1.63;77.78
34297;BME280;20564;42.902;25.336;2023-03-13T01:39:34;97574.28;;;1.31;77.96
34297;BME280;20564;42.902;25.336;2023-03-13T01:42:20;97587.44;;;1.28;78.78
34297;BME280;20564;42.902;25.336;2023-03-13T01:44:58;97605.34;;;1.33;79.70
34297;BME280;20564;42.902;25.336;2023-03-13T01:48:00;97610.69;;;1.30;79.81
34297;BME280;20564;42.902;25.336;2023-03-13T01:50:31;97610.81;;;1.27;80.13
34297;BME280;20564;42.902;25.336;2023-03-13T01:53:16;97613.28;;;1.30;79.96
34297;BME280;20564;42.902;25.336;2023-03-13T01:56:21;97622.16;;;1.24;79.46
34297;BME280;20564;42.902;25.336;2023-03-13T01:59:45;97605.53;;;1.11;80.30
34297;BME280;20564;42.902;25.336;2023-03-13T02:06:02;97624.16;;;1.00;80.65
34297;BME280;20564;42.902;25.336;2023-03-13T02:08:49;97633.69;;;1.00;81.02
34297;BME280;20564;42.902;25.336;2023-03-13T02:14:02;97631.28;;;0.95;81.26
34297;BME280;20564;42.902;25.336;2023-03-13T02:16:54;97630.75;;;0.88;81.33
34297;BME280;20564;42.902;25.336;2023-03-13T02:22:25;97642.50;;;0.77;81.71
34297;BME280;20564;42.902;25.336;2023-03-13T02:28:00;97648.38;;;0.80;81.80
34297;BME280;20564;42.902;25.336;2023-03-13T02:30:34;97640.81;;;0.76;80.82
34297;BME280;20564;42.902;25.336;2023-03-13T02:33:06;97646.13;;;0.72;79.52
34297;BME280;20564;42.902;25.336;2023-03-13T02:35:35;97643.75;;;0.68;79.85
34297;BME280;20564;42.902;25.336;2023-03-13T02:38:07;97645.84;;;0.60;80.81
34297;BME280;20564;42.902;25.336;2023-03-13T02:40:48;97631.59;;;0.50;81.36
34297;BME280;20564;42.902;25.336;2023-03-13T02:43:28;97650.94;;;0.61;81.34
34297;BME280;20564;42.902;25.336;2023-03-13T02:46:21;97659.72;;;0.59;81.82
34297;BME280;20564;42.902;25.336;2023-03-13T02:48:51;97654.59;;;0.57;82.05
34297;BME280;20564;42.902;25.336;2023-03-13T02:51:49;97664.94;;;0.57;82.57
34297;BME280;20564;42.902;25.336;2023-03-13T02:54:33;97668.44;;;0.56;81.97
34297;BME280;20564;42.902;25.336;2023-03-13T02:57:30;97660.81;;;0.53;82.63
34297;BME280;20564;42.902;25.336;2023-03-13T03:00:06;97671.28;;;0.50;81.65
34297;BME280;20564;42.902;25.336;2023-03-13T03:02:40;97673.75;;;0.33;81.31
34297;BME280;20564;42.902;25.336;2023-03-13T03:05:55;97672.78;;;0.35;82.68
34297;BME280;20564;42.902;25.336;2023-03-13T03:08:02;97677.13;;;0.35;82.75
34297;BME280;20564;42.902;25.336;2023-03-13T03:10:31;97689.28;;;0.33;82.08
34297;BME280;20564;42.902;25.336;2023-03-13T03:13:04;97694.47;;;0.33;82.53
34297;BME280;20564;42.902;25.336;2023-03-13T03:15:35;97703.22;;;0.30;82.63
34297;BME280;20564;42.902;25.336;2023-03-13T03:18:06;97706.41;;;0.37;82.54
34297;BME280;20564;42.902;25.336;2023-03-13T03:20:34;97701.47;;;0.31;82.30
34297;BME280;20564;42.902;25.336;2023-03-13T03:23:11;97697.34;;;0.27;82.42
34297;BME280;20564;42.902;25.336;2023-03-13T03:25:51;97684.97;;;0.13;82.78
34297;BME280;20564;42.902;25.336;2023-03-13T03:28:18;97681.06;;;0.03;82.46
34297;BME280;20564;42.902;25.336;2023-03-13T03:30:46;97705.88;;;0.08;83.22
34297;BME280;20564;42.902;25.336;2023-03-13T03:33:14;97705.03;;;0.08;83.18
34297;BME280;20564;42.902;25.336;2023-03-13T03:35:42;97714.66;;;0.04;82.82
34297;BME280;20564;42.902;25.336;2023-03-13T03:38:09;97710.25;;;0.06;82.56
34297;BME280;20564;42.902;25.336;2023-03-13T03:40:39;97728.63;;;0.00;82.04
34297;BME280;20564;42.902;25.336;2023-03-13T03:43:06;97724.59;;;-0.07;83.31
34297;BME280;20564;42.902;25.336;2023-03-13T03:45:33;97729.47;;;0.01;83.18
34297;BME280;20564;42.902;25.336;2023-03-13T03:48:10;97742.44;;;-0.01;83.50
34297;BME280;20564;42.902;25.336;2023-03-13T03:50:37;97740.06;;;-0.06;83.34
34297;BME280;20564;42.902;25.336;2023-03-13T03:53:14;97744.41;;;-0.06;83.24
34297;BME280;20564;42.902;25.336;2023-03-13T03:55:44;97753.06;;;-0.07;83.49
34297;BME280;20564;42.902;25.336;2023-03-13T03:58:13;97748.16;;;-0.15;83.18
34297;BME280;20564;42.902;25.336;2023-03-13T04:01:13;97723.94;;;-0.34;83.36
34297;BME280;20564;42.902;25.336;2023-03-13T04:04:00;97740.88;;;-0.26;83.43
34297;BME280;20564;42.902;25.336;2023-03-13T04:06:30;97741.19;;;-0.35;83.34
34297;BME280;20564;42.902;25.336;2023-03-13T04:09:02;97760.88;;;-0.31;84.17
34297;BME280;20564;42.902;25.336;2023-03-13T04:11:44;97731.28;;;-0.45;83.48
34297;BME280;20564;42.902;25.336;2023-03-13T04:14:28;97767.97;;;-0.36;84.25
34297;BME280;20564;42.902;25.336;2023-03-13T04:16:59;97764.56;;;-0.36;84.59
34297;BME280;20564;42.902;25.336;2023-03-13T04:19:26;97768.81;;;-0.35;84.01
34297;BME280;20564;42.902;25.336;2023-03-13T04:21:54;97764.59;;;-0.38;83.69
34297;BME280;20564;42.902;25.336;2023-03-13T04:24:21;97769.75;;;-0.38;84.00
34297;BME280;20564;42.902;25.336;2023-03-13T04:26:48;97768.31;;;-0.45;84.01
34297;BME280;20564;42.902;25.336;2023-03-13T04:29:15;97780.34;;;-0.44;83.41
34297;BME280;20564;42.902;25.336;2023-03-13T04:31:44;97790.81;;;-0.47;83.38
34297;BME280;20564;42.902;25.336;2023-03-13T04:34:17;97796.88;;;-0.48;83.65
34297;BME280;20564;42.902;25.336;2023-03-13T04:36:44;97802.00;;;-0.46;84.36
34297;BME280;20564;42.902;25.336;2023-03-13T04:39:12;97796.09;;;-0.50;84.34
34297;BME280;20564;42.902;25.336;2023-03-13T04:41:39;97808.22;;;-0.52;84.40
34297;BME280;20564;42.902;25.336;2023-03-13T04:44:06;97810.09;;;-0.56;84.96
34297;BME280;20564;42.902;25.336;2023-03-13T04:46:33;97815.31;;;-0.57;84.83
34297;BME280;20564;42.902;25.336;2023-03-13T04:49:00;97808.34;;;-0.55;85.64
34297;BME280;20564;42.902;25.336;2023-03-13T04:51:28;97818.56;;;-0.52;85.51
34297;BME280;20564;42.902;25.336;2023-03-13T04:53:55;97809.94;;;-0.51;84.96
34297;BME280;20564;42.902;25.336;2023-03-13T04:56:28;97812.44;;;-0.50;85.17
34297;BME280;20564;42.902;25.336;2023-03-13T04:59:15;97814.97;;;-0.48;84.83
34297;BME280;20564;42.902;25.336;2023-03-13T05:01:49;97823.16;;;-0.37;84.41
34297;BME280;20564;42.902;25.336;2023-03-13T05:04:24;97819.91;;;-0.42;84.19
34297;BME280;20564;42.902;25.336;2023-03-13T05:07:00;97829.34;;;-0.41;84.00
34297;BME280;20564;42.902;25.336;2023-03-13T05:10:01;97830.25;;;-0.42;83.68
34297;BME280;20564;42.902;25.336;2023-03-13T05:12:33;97827.84;;;-0.46;84.59
34297;BME280;20564;42.902;25.336;2023-03-13T05:15:01;97836.44;;;-0.46;84.75
34297;BME280;20564;42.902;25.336;2023-03-13T05:17:29;97838.94;;;-0.43;84.92
34297;BME280;20564;42.902;25.336;2023-03-13T05:20:02;97834.38;;;-0.36;84.97
34297;BME280;20564;42.902;25.336;2023-03-13T05:22:32;97829.34;;;-0.41;84.30
34297;BME280;20564;42.902;25.336;2023-03-13T05:25:00;97838.47;;;-0.31;84.43
34297;BME280;20564;42.902;25.336;2023-03-13T05:27:28;97831.72;;;-0.35;84.69
34297;BME280;20564;42.902;25.336;2023-03-13T05:29:55;97847.56;;;-0.20;84.96
34297;BME280;20564;42.902;25.336;2023-03-13T05:32:23;97837.88;;;-0.15;84.81
34297;BME280;20564;42.902;25.336;2023-03-13T05:34:50;97835.06;;;-0.09;84.48
34297;BME280;20564;42.902;25.336;2023-03-13T05:37:19;97845.75;;;0.05;84.51
34297;BME280;20564;42.902;25.336;2023-03-13T05:39:54;97844.47;;;0.15;83.70
34297;BME280;20564;42.902;25.336;2023-03-13T05:42:21;97848.63;;;0.19;83.17
34297;BME280;20564;42.902;25.336;2023-03-13T05:44:52;97850.19;;;0.23;84.27
34297;BME280;20564;42.902;25.336;2023-03-13T05:47:19;97848.03;;;0.35;82.56
34297;BME280;20564;42.902;25.336;2023-03-13T05:49:46;97852.59;;;0.50;81.82
34297;BME280;20564;42.902;25.336;2023-03-13T05:52:19;97850.53;;;0.58;82.50
34297;BME280;20564;42.902;25.336;2023-03-13T05:54:48;97845.09;;;0.64;82.39
34297;BME280;20564;42.902;25.336;2023-03-13T05:57:15;97835.94;;;0.78;81.35
34297;BME280;20564;42.902;25.336;2023-03-13T05:59:43;97845.41;;;0.99;81.46
34297;BME280;20564;42.902;25.336;2023-03-13T06:02:13;97853.00;;;1.23;79.94
34297;BME280;20564;42.902;25.336;2023-03-13T06:04:41;97847.75;;;1.24;78.43
34297;BME280;20564;42.902;25.336;2023-03-13T06:07:08;97856.34;;;1.45;78.22
34297;BME280;20564;42.902;25.336;2023-03-13T06:09:35;97847.50;;;1.69;75.94
34297;BME280;20564;42.902;25.336;2023-03-13T06:12:02;97847.69;;;1.84;74.62
34297;BME280;20564;42.902;25.336;2023-03-13T06:14:30;97849.22;;;2.07;74.28
34297;BME280;20564;42.902;25.336;2023-03-13T06:16:57;97844.00;;;2.26;73.10
34297;BME280;20564;42.902;25.336;2023-03-13T06:19:24;97839.31;;;2.51;72.13
34297;BME280;20564;42.902;25.336;2023-03-13T06:21:51;97852.19;;;2.72;71.42
34297;BME280;20564;42.902;25.336;2023-03-13T06:24:18;97858.75;;;2.96;70.32
34297;BME280;20564;42.902;25.336;2023-03-13T06:26:48;97852.47;;;3.18;67.90
34297;BME280;20564;42.902;25.336;2023-03-13T06:29:16;97846.19;;;3.39;67.28
34297;BME280;20564;42.902;25.336;2023-03-13T06:31:44;97842.81;;;3.70;67.61
34297;BME280;20564;42.902;25.336;2023-03-13T06:34:20;97839.16;;;4.06;66.61
34297;BME280;20564;42.902;25.336;2023-03-13T06:36:52;97827.97;;;4.35;66.87
34297;BME280;20564;42.902;25.336;2023-03-13T06:39:20;97835.94;;;4.48;65.38
34297;BME280;20564;42.902;25.336;2023-03-13T06:41:48;97840.03;;;4.68;63.87
34297;BME280;20564;42.902;25.336;2023-03-13T06:44:15;97833.25;;;4.80;62.68
34297;BME280;20564;42.902;25.336;2023-03-13T06:46:43;97837.03;;;5.04;63.54
34297;BME280;20564;42.902;25.336;2023-03-13T06:49:13;97837.25;;;5.30;61.14
34297;BME280;20564;42.902;25.336;2023-03-13T06:51:40;97839.03;;;5.44;61.53
34297;BME280;20564;42.902;25.336;2023-03-13T06:54:07;97832.72;;;5.62;60.54
34297;BME280;20564;42.902;25.336;2023-03-13T06:56:37;97834.13;;;5.82;59.01
34297;BME280;20564;42.902;25.336;2023-03-13T06:59:06;97837.09;;;5.90;58.79
34297;BME280;20564;42.902;25.336;2023-03-13T07:01:33;97840.91;;;5.99;58.47
34297;BME280;20564;42.902;25.336;2023-03-13T07:04:01;97829.91;;;6.08;57.66
34297;BME280;20564;42.902;25.336;2023-03-13T07:06:27;97823.69;;;6.23;56.51
34297;BME280;20564;42.902;25.336;2023-03-13T07:08:54;97829.22;;;6.46;55.66
34297;BME280;20564;42.902;25.336;2023-03-13T07:11:21;97829.94;;;6.75;56.34
34297;BME280;20564;42.902;25.336;2023-03-13T07:13:49;97824.34;;;6.94;54.06
34297;BME280;20564;42.902;25.336;2023-03-13T07:16:16;97826.03;;;7.08;53.18
34297;BME280;20564;42.902;25.336;2023-03-13T07:18:44;97827.94;;;7.18;54.39
34297;BME280;20564;42.902;25.336;2023-03-13T07:21:13;97819.56;;;7.52;53.65
34297;BME280;20564;42.902;25.336;2023-03-13T07:23:41;97810.22;;;7.60;50.74
34297;BME280;20564;42.902;25.336;2023-03-13T07:26:13;97807.19;;;7.79;51.27
34297;BME280;20564;42.902;25.336;2023-03-13T07:28:41;97810.16;;;7.98;52.92
34297;BME280;20564;42.902;25.336;2023-03-13T07:31:12;97811.06;;;8.23;49.97
34297;BME280;20564;42.902;25.336;2023-03-13T07:33:41;97803.94;;;8.36;48.77
34297;BME280;20564;42.902;25.336;2023-03-13T07:36:10;97802.97;;;8.50;47.88
34297;BME280;20564;42.902;25.336;2023-03-13T07:38:42;97802.94;;;8.63;47.99
34297;BME280;20564;42.902;25.336;2023-03-13T07:41:12;97796.72;;;8.64;47.27
34297;BME280;20564;42.902;25.336;2023-03-13T07:43:40;97787.09;;;8.76;47.26
34297;BME280;20564;42.902;25.336;2023-03-13T07:46:14;97772.13;;;8.89;46.32
34297;BME280;20564;42.902;25.336;2023-03-13T07:48:42;97772.44;;;8.84;46.39
34297;BME280;20564;42.902;25.336;2023-03-13T07:51:20;97774.09;;;8.74;46.71
34297;BME280;20564;42.902;25.336;2023-03-13T07:54:06;97754.59;;;9.01;46.51
34297;BME280;20564;42.902;25.336;2023-03-13T07:56:33;97752.81;;;9.01;45.86
34297;BME280;20564;42.902;25.336;2023-03-13T07:59:01;97750.06;;;9.03;45.56
34297;BME280;20564;42.902;25.336;2023-03-13T08:01:29;97749.47;;;9.10;45.53
34297;BME280;20564;42.902;25.336;2023-03-13T08:03:57;97740.75;;;9.10;46.30
34297;BME280;20564;42.902;25.336;2023-03-13T08:06:30;97753.44;;;9.16;45.50
34297;BME280;20564;42.902;25.336;2023-03-13T08:09:00;97751.63;;;9.16;45.46
34297;BME280;20564;42.902;25.336;2023-03-13T08:11:28;97740.31;;;9.38;45.31
34297;BME280;20564;42.902;25.336;2023-03-13T08:13:59;97743.16;;;9.58;44.16
34297;BME280;20564;42.902;25.336;2023-03-13T08:16:30;97737.22;;;9.56;45.43
34297;BME280;20564;42.902;25.336;2023-03-13T08:19:01;97736.00;;;9.60;43.17
34297;BME280;20564;42.902;25.336;2023-03-13T08:21:33;97726.34;;;9.38;43.76
34297;BME280;20564;42.902;25.336;2023-03-13T08:24:03;97729.78;;;9.50;44.06
34297;BME280;20564;42.902;25.336;2023-03-13T08:26:33;97722.63;;;9.52;43.34
34297;BME280;20564;42.902;25.336;2023-03-13T08:29:08;97734.44;;;9.57;43.07
34297;BME280;20564;42.902;25.336;2023-03-13T08:31:41;97731.00;;;9.46;43.09
34297;BME280;20564;42.902;25.336;2023-03-13T08:34:11;97730.03;;;9.47;42.84
34297;BME280;20564;42.902;25.336;2023-03-13T08:36:40;97729.56;;;9.64;39.38
34297;BME280;20564;42.902;25.336;2023-03-13T08:39:12;97725.72;;;9.68;39.40
34297;BME280;20564;42.902;25.336;2023-03-13T08:41:40;97730.13;;;9.79;39.26
34297;BME280;20564;42.902;25.336;2023-03-13T08:44:13;97718.47;;;10.04;39.87
34297;BME280;20564;42.902;25.336;2023-03-13T08:46:46;97729.44;;;10.31;39.88
34297;BME280;20564;42.902;25.336;2023-03-13T08:49:15;97713.75;;;10.62;40.47
34297;BME280;20564;42.902;25.336;2023-03-13T08:51:43;97714.25;;;10.98;37.98
34297;BME280;20564;42.902;25.336;2023-03-13T08:54:11;97704.63;;;11.08;38.86
34297;BME280;20564;42.902;25.336;2023-03-13T08:56:39;97697.09;;;11.03;38.79
34297;BME280;20564;42.902;25.336;2023-03-13T08:59:07;97696.19;;;11.14;37.14
34297;BME280;20564;42.902;25.336;2023-03-13T09:01:35;97702.41;;;11.13;35.73
34297;BME280;20564;42.902;25.336;2023-03-13T09:04:07;97706.03;;;11.12;36.23
34297;BME280;20564;42.902;25.336;2023-03-13T09:06:36;97693.13;;;11.09;35.02
34297;BME280;20564;42.902;25.336;2023-03-13T09:09:08;97697.66;;;11.07;35.29
34297;BME280;20564;42.902;25.336;2023-03-13T09:11:41;97692.06;;;11.00;34.58
34297;BME280;20564;42.902;25.336;2023-03-13T09:14:09;97693.75;;;11.01;35.74
34297;BME280;20564;42.902;25.336;2023-03-13T09:16:36;97697.06;;;11.24;35.73
34297;BME280;20564;42.902;25.336;2023-03-13T09:19:04;97686.16;;;11.39;33.72
34297;BME280;20564;42.902;25.336;2023-03-13T09:21:32;97691.44;;;11.39;32.46
34297;BME280;20564;42.902;25.336;2023-03-13T09:24:01;97674.47;;;11.31;34.58
34297;BME280;20564;42.902;25.336;2023-03-13T09:26:29;97671.78;;;11.52;33.68
34297;BME280;20564;42.902;25.336;2023-03-13T09:28:57;97668.75;;;11.57;32.45
34297;BME280;20564;42.902;25.336;2023-03-13T09:31:27;97669.31;;;11.61;33.72
34297;BME280;20564;42.902;25.336;2023-03-13T09:33:56;97663.47;;;11.57;33.93
34297;BME280;20564;42.902;25.336;2023-03-13T09:36:25;97665.53;;;11.53;34.99
34297;BME280;20564;42.902;25.336;2023-03-13T09:38:57;97663.72;;;11.54;33.33
34297;BME280;20564;42.902;25.336;2023-03-13T09:41:31;97662.38;;;11.69;34.48
34297;BME280;20564;42.902;25.336;2023-03-13T09:44:36;97664.25;;;11.88;32.86
34297;BME280;20564;42.902;25.336;2023-03-13T09:47:24;97653.44;;;12.01;34.65
34297;BME280;20564;42.902;25.336;2023-03-13T09:50:18;97657.59;;;11.94;32.51
34297;BME280;20564;42.902;25.336;2023-03-13T09:52:51;97662.47;;;11.89;33.34
34297;BME280;20564;42.902;25.336;2023-03-13T09:55:23;97653.41;;;11.81;32.26
34297;BME280;20564;42.902;25.336;2023-03-13T09:57:55;97656.31;;;11.78;32.70
34297;BME280;20564;42.902;25.336;2023-03-13T10:00:35;97651.75;;;11.90;34.21
34297;BME280;20564;42.902;25.336;2023-03-13T10:05:49;97665.66;;;12.02;35.33
34297;BME280;20564;42.902;25.336;2023-03-13T10:08:18;97658.84;;;12.28;34.45
34297;BME280;20564;42.902;25.336;2023-03-13T10:16:16;97640.00;;;12.90;33.07
34297;BME280;20564;42.902;25.336;2023-03-13T10:18:50;97638.72;;;13.03;32.71
34297;BME280;20564;42.902;25.336;2023-03-13T10:21:21;97632.66;;;12.84;32.48
34297;BME280;20564;42.902;25.336;2023-03-13T10:24:13;97632.06;;;12.99;32.07
34297;BME280;20564;42.902;25.336;2023-03-13T10:26:46;97637.78;;;12.95;32.11
34297;BME280;20564;42.902;25.336;2023-03-13T10:29:27;97623.97;;;13.01;31.91
34297;BME280;20564;42.902;25.336;2023-03-13T10:32:22;97626.56;;;12.73;32.87
34297;BME280;20564;42.902;25.336;2023-03-13T10:34:57;97624.38;;;12.59;33.47
34297;BME280;20564;42.902;25.336;2023-03-13T10:37:31;97606.25;;;12.84;32.96
34297;BME280;20564;42.902;25.336;2023-03-13T10:40:24;97605.94;;;12.87;32.60
34297;BME280;20564;42.902;25.336;2023-03-13T10:43:04;97600.59;;;13.06;31.93
34297;BME280;20564;42.902;25.336;2023-03-13T10:45:35;97590.81;;;13.16;32.62
34297;BME280;20564;42.902;25.336;2023-03-13T10:48:34;97588.56;;;13.21;31.76
34297;BME280;20564;42.902;25.336;2023-03-13T10:51:20;97587.78;;;13.11;31.86
34297;BME280;20564;42.902;25.336;2023-03-13T10:56:41;97588.19;;;13.16;32.15
34297;BME280;20564;42.902;25.336;2023-03-13T10:59:39;97581.66;;;13.11;30.50
34297;BME280;20564;42.902;25.336;2023-03-13T11:02:33;97582.50;;;13.11;31.45
34297;BME280;20564;42.902;25.336;2023-03-13T11:07:52;97583.84;;;13.25;29.27
34297;BME280;20564;42.902;25.336;2023-03-13T11:10:25;97573.81;;;13.29;29.41
34297;BME280;20564;42.902;25.336;2023-03-13T11:12:56;97568.97;;;13.14;28.24
34297;BME280;20564;42.902;25.336;2023-03-13T11:15:46;97568.06;;;13.06;29.00
34297;BME280;20564;42.902;25.336;2023-03-13T11:18:22;97562.81;;;12.96;28.54
34297;BME280;20564;42.902;25.336;2023-03-13T11:20:52;97558.16;;;12.80;29.91
34297;BME280;20564;42.902;25.336;2023-03-13T11:23:36;97552.03;;;12.79;29.35
34297;BME280;20564;42.902;25.336;2023-03-13T11:26:48;97552.25;;;12.96;28.40
34297;BME280;20564;42.902;25.336;2023-03-13T11:29:53;97548.22;;;13.19;28.89
34297;BME280;20564;42.902;25.336;2023-03-13T11:32:28;97553.19;;;13.32;29.53
34297;BME280;20564;42.902;25.336;2023-03-13T11:34:59;97536.81;;;13.29;28.83
34297;BME280;20564;42.902;25.336;2023-03-13T11:37:32;97540.00;;;13.50;29.59
34297;BME280;20564;42.902;25.336;2023-03-13T11:40:18;97524.56;;;13.63;28.84
34297;BME280;20564;42.902;25.336;2023-03-13T11:43:02;97525.78;;;13.51;28.00
34297;BME280;20564;42.902;25.336;2023-03-13T11:45:54;97527.00;;;13.39;27.22
34297;BME280;20564;42.902;25.336;2023-03-13T11:57:36;97509.75;;;13.70;27.48
34297;BME280;20564;42.902;25.336;2023-03-13T12:00:15;97510.81;;;13.78;26.89
34297;BME280;20564;42.902;25.336;2023-03-13T12:02:58;97505.31;;;13.71;27.01
34297;BME280;20564;42.902;25.336;2023-03-13T12:05:43;97499.28;;;13.61;27.35
34297;BME280;20564;42.902;25.336;2023-03-13T12:08:41;97503.59;;;13.62;26.65
34297;BME280;20564;42.902;25.336;2023-03-13T12:11:16;97500.41;;;13.58;27.49
34297;BME280;20564;42.902;25.336;2023-03-13T12:17:27;97488.53;;;13.44;26.70
34297;BME280;20564;42.902;25.336;2023-03-13T12:22:51;97485.06;;;13.62;27.81
34297;BME280;20564;42.902;25.336;2023-03-13T12:25:23;97471.69;;;13.63;26.64
34297;BME280;20564;42.902;25.336;2023-03-13T12:28:24;97492.53;;;13.66;26.95
34297;BME280;20564;42.902;25.336;2023-03-13T12:30:59;97482.41;;;13.80;27.26
34297;BME280;20564;42.902;25.336;2023-03-13T12:33:36;97487.97;;;13.94;26.99
34297;BME280;20564;42.902;25.336;2023-03-13T12:36:19;97482.09;;;14.01;26.53
34297;BME280;20564;42.902;25.336;2023-03-13T12:38:54;97473.81;;;14.04;27.04
34297;BME280;20564;42.902;25.336;2023-03-13T12:41:47;97475.06;;;14.17;25.09
34297;BME280;20564;42.902;25.336;2023-03-13T12:44:21;97473.75;;;14.21;26.15
34297;BME280;20564;42.902;25.336;2023-03-13T12:58:50;97473.28;;;14.00;28.10
34297;BME280;20564;42.902;25.336;2023-03-13T13:01:33;97472.88;;;13.87;29.76
34297;BME280;20564;42.902;25.336;2023-03-13T13:04:29;97471.63;;;13.99;29.17
34297;BME280;20564;42.902;25.336;2023-03-13T13:07:00;97475.88;;;13.92;29.31
34297;BME280;20564;42.902;25.336;2023-03-13T13:12:22;97472.00;;;13.60;30.48
34297;BME280;20564;42.902;25.336;2023-03-13T13:23:38;97465.50;;;13.37;30.94
34297;BME280;20564;42.902;25.336;2023-03-13T13:31:57;97457.53;;;13.19;30.75
34297;BME280;20564;42.902;25.336;2023-03-13T13:40:19;97457.00;;;13.15;30.49
34297;BME280;20564;42.902;25.336;2023-03-13T13:42:51;97460.13;;;13.01;31.49
34297;BME280;20564;42.902;25.336;2023-03-13T13:45:30;97449.16;;;13.06;31.80
34297;BME280;20564;42.902;25.336;2023-03-13T13:48:30;97449.56;;;13.01;31.49
34297;BME280;20564;42.902;25.336;2023-03-13T13:56:51;97441.25;;;13.23;33.08
34297;BME280;20564;42.902;25.336;2023-03-13T14:00:04;97441.94;;;13.25;33.19
34297;BME280;20564;42.902;25.336;2023-03-13T14:02:51;97450.34;;;13.11;33.57
34297;BME280;20564;42.902;25.336;2023-03-13T14:05:32;97454.00;;;12.83;33.66
34297;BME280;20564;42.902;25.336;2023-03-13T14:08:20;97445.78;;;12.86;33.89
34297;BME280;20564;42.902;25.336;2023-03-13T14:13:33;97444.56;;;12.80;34.04
34297;BME280;20564;42.902;25.336;2023-03-13T14:16:25;97452.06;;;12.85;33.14
34297;BME280;20564;42.902;25.336;2023-03-13T14:18:54;97446.44;;;12.70;32.93
34297;BME280;20564;42.902;25.336;2023-03-13T14:21:24;97447.00;;;12.64;32.93
34297;BME280;20564;42.902;25.336;2023-03-13T14:23:55;97445.47;;;12.61;33.54
34297;BME280;20564;42.902;25.336;2023-03-13T14:26:27;97451.47;;;12.63;32.32
34297;BME280;20564;42.902;25.336;2023-03-13T14:28:57;97452.03;;;12.57;32.65
34297;BME280;20564;42.902;25.336;2023-03-13T14:33:59;97448.22;;;12.42;33.25
34297;BME280;20564;42.902;25.336;2023-03-13T14:36:27;97444.59;;;12.43;33.46
34297;BME280;20564;42.902;25.336;2023-03-13T14:38:59;97452.94;;;12.48;33.81
34297;BME280;20564;42.902;25.336;2023-03-13T14:41:36;97452.22;;;12.46;34.07
34297;BME280;20564;42.902;25.336;2023-03-13T14:50:02;97452.31;;;12.54;35.70
34297;BME280;20564;42.902;25.336;2023-03-13T14:52:32;97464.28;;;12.58;34.33
34297;BME280;20564;42.902;25.336;2023-03-13T14:55:26;97463.44;;;12.58;34.56
34297;BME280;20564;42.902;25.336;2023-03-13T14:57:58;97459.69;;;12.60;34.31
34297;BME280;20564;42.902;25.336;2023-03-13T15:00:45;97466.69;;;12.42;34.04
34297;BME280;20564;42.902;25.336;2023-03-13T15:06:17;97469.84;;;12.83;32.89
34297;BME280;20564;42.902;25.336;2023-03-13T15:09:24;97463.97;;;13.16;33.93
34297;BME280;20564;42.902;25.336;2023-03-13T15:11:59;97449.28;;;13.49;31.87
34297;BME280;20564;42.902;25.336;2023-03-13T15:14:45;97449.84;;;14.31;31.39
34297;BME280;20564;42.902;25.336;2023-03-13T15:17:34;97452.00;;;15.20;30.14
34297;BME280;20564;42.902;25.336;2023-03-13T15:20:09;97463.09;;;15.08;31.43
34297;BME280;20564;42.902;25.336;2023-03-13T15:22:53;97458.19;;;14.79;31.34
34297;BME280;20564;42.902;25.336;2023-03-13T15:25:22;97461.25;;;14.32;30.99
34297;BME280;20564;42.902;25.336;2023-03-13T15:27:57;97461.63;;;13.67;31.90